Mount Victory, Ohio
Current Conditions -  °F | °C
As of 11:30 AM on Friday 19 Dec 2014 (Local Time) from KEDJ Reporting Station
Broken Clouds Broken Clouds  
Wind Chill: 27°   Ceiling: 2100
Heat Index: 27°   Visibility: 5mi
Dew Point: 23°   Wind: 3mph
Humidity: 86%   Direction: 270°W
Pressure: 30.27"   Gusts: NA
Location:  40.53°N, 83.52°W
Report Text: KEDJ 191630Z AUTO 27003KT 5SM SCT010 BKN021 M03/M05 A3027 RMK AO1
Loading
Personal Weather Stations






























Interactive Weather Map New forecast layout! Learn more

10-Day Weather Forecast

Advertisements
Track Severe Weather on mobile